createdAt,value
2022-12-08T00:01:16.293Z,8.82
2022-12-08T00:03:43.433Z,8.53
2022-12-08T00:06:42.940Z,8.07
2022-12-08T00:09:23.669Z,8.00
2022-12-08T00:11:56.555Z,8.50
2022-12-08T00:14:26.717Z,8.57
2022-12-08T00:16:54.435Z,9.20
2022-12-08T00:19:21.760Z,8.23
2022-12-08T00:21:48.575Z,7.88
2022-12-08T00:24:15.172Z,8.57
2022-12-08T00:26:41.716Z,8.70
2022-12-08T00:29:13.087Z,8.67
2022-12-08T00:31:42.539Z,8.00
2022-12-08T00:34:09.186Z,8.68
2022-12-08T00:36:35.657Z,8.55
2022-12-08T00:39:02.156Z,8.38
2022-12-08T00:41:47.020Z,8.10
2022-12-08T00:44:16.335Z,7.65
2022-12-08T00:46:42.962Z,8.20
2022-12-08T00:49:09.497Z,8.80
2022-12-08T00:51:36.145Z,8.57
2022-12-08T00:54:03.128Z,9.17
2022-12-08T00:56:29.544Z,9.23
2022-12-08T00:58:56.099Z,9.05
2022-12-08T01:01:23.007Z,9.10
2022-12-08T01:03:49.649Z,10.38
2022-12-08T01:06:16.496Z,10.23
2022-12-08T01:08:43.030Z,9.15
2022-12-08T01:11:14.834Z,9.80
2022-12-08T01:13:42.071Z,10.23
2022-12-08T01:16:08.760Z,9.27
2022-12-08T01:18:36.331Z,10.10
2022-12-08T01:21:07.277Z,10.02
2022-12-08T01:23:34.773Z,8.57
2022-12-08T01:26:05.380Z,10.75
2022-12-08T01:28:32.539Z,10.38
2022-12-08T01:31:00.176Z,10.57
2022-12-08T01:33:27.233Z,11.20
2022-12-08T01:35:55.373Z,9.85
2022-12-08T01:38:22.654Z,9.95
2022-12-08T01:40:49.773Z,10.60
2022-12-08T01:43:19.946Z,10.67
2022-12-08T01:45:46.861Z,11.30
2022-12-08T01:48:31.647Z,8.88
2022-12-08T01:50:59.125Z,9.75
2022-12-08T01:53:32.763Z,10.95
2022-12-08T01:56:06.900Z,10.17
2022-12-08T01:58:37.882Z,10.35
2022-12-08T02:01:05.019Z,9.35
2022-12-08T02:03:36.888Z,9.52
2022-12-08T02:06:03.968Z,9.90
2022-12-08T02:08:31.688Z,11.13
2022-12-08T02:10:58.121Z,12.65
2022-12-08T02:13:25.426Z,11.82
2022-12-08T02:16:30.606Z,13.15
2022-12-08T02:19:36.327Z,12.57
2022-12-08T02:22:14.211Z,12.23
2022-12-08T02:24:56.913Z,12.40
2022-12-08T02:27:35.938Z,11.27
2022-12-08T02:30:05.352Z,11.23
2022-12-08T02:32:59.324Z,10.70
2022-12-08T02:35:44.075Z,10.80
2022-12-08T02:38:35.164Z,11.02
2022-12-08T02:41:07.588Z,10.60
2022-12-08T02:43:47.954Z,8.60
2022-12-08T02:46:22.580Z,8.57
2022-12-08T02:48:51.857Z,8.83
2022-12-08T02:51:19.151Z,7.47
2022-12-08T02:53:46.613Z,7.85
2022-12-08T02:56:31.820Z,7.88
2022-12-08T02:59:25.767Z,8.15
2022-12-08T03:02:28.790Z,7.63
2022-12-08T03:05:13.147Z,7.28
2022-12-08T03:08:02.821Z,5.78
2022-12-08T03:10:35.517Z,6.57
2022-12-08T03:13:14.681Z,6.60
2022-12-08T03:15:43.119Z,7.33
2022-12-08T03:18:13.165Z,7.05
2022-12-08T03:20:41.531Z,5.97
2022-12-08T03:23:11.387Z,7.10
2022-12-08T03:25:41.794Z,6.57
2022-12-08T03:28:08.432Z,7.30
2022-12-08T03:30:39.759Z,6.82
2022-12-08T03:33:20.404Z,5.43
2022-12-08T03:35:47.769Z,6.60
2022-12-08T03:38:16.594Z,7.20
2022-12-08T03:40:44.122Z,7.70
2022-12-08T03:43:10.650Z,6.80
2022-12-08T03:45:37.101Z,7.63
2022-12-08T03:48:03.672Z,6.75
2022-12-08T03:50:30.187Z,6.95
2022-12-08T03:52:56.632Z,7.50
2022-12-08T03:55:23.051Z,7.40
2022-12-08T03:57:49.452Z,7.65
2022-12-08T04:00:16.996Z,7.40
2022-12-08T04:02:43.639Z,8.07
2022-12-08T04:05:10.899Z,6.50
2022-12-08T04:07:37.517Z,7.72
2022-12-08T04:10:05.639Z,7.97
2022-12-08T04:12:32.530Z,7.88
2022-12-08T04:14:58.980Z,8.23
2022-12-08T04:17:25.547Z,9.07
2022-12-08T04:19:51.951Z,8.43
2022-12-08T04:22:18.410Z,8.27
2022-12-08T04:24:44.857Z,8.65
2022-12-08T04:27:11.329Z,8.98
2022-12-08T04:29:37.814Z,8.87
2022-12-08T04:32:04.569Z,8.95
2022-12-08T04:34:30.966Z,8.05
2022-12-08T04:36:57.468Z,8.10
2022-12-08T04:39:24.127Z,8.02
2022-12-08T04:41:50.549Z,8.17
2022-12-08T04:44:17.144Z,7.03
2022-12-08T04:46:43.961Z,7.38
2022-12-08T04:49:10.691Z,7.57
2022-12-08T04:51:37.133Z,7.93
2022-12-08T04:54:03.587Z,7.07
2022-12-08T04:56:30.604Z,7.80
2022-12-08T04:58:57.036Z,6.25
2022-12-08T05:01:23.607Z,9.10
2022-12-08T05:03:50.179Z,7.80
2022-12-08T05:06:16.709Z,8.90
2022-12-08T05:08:43.459Z,5.97
2022-12-08T05:11:11.768Z,5.63
2022-12-08T05:13:38.379Z,6.57
2022-12-08T05:16:06.900Z,6.38
2022-12-08T05:18:33.541Z,6.50
2022-12-08T05:21:00.084Z,5.97
2022-12-08T05:23:27.435Z,5.53
2022-12-08T05:25:53.968Z,6.70
2022-12-08T05:28:40.899Z,6.20
2022-12-08T05:31:07.139Z,6.17
2022-12-08T05:33:33.613Z,6.50
2022-12-08T05:36:00.089Z,6.15
2022-12-08T05:38:26.586Z,6.38
2022-12-08T05:40:53.023Z,6.90
2022-12-08T05:43:19.486Z,6.47
2022-12-08T05:45:45.997Z,5.80
2022-12-08T05:48:12.557Z,5.85
2022-12-08T05:50:39.035Z,6.22
2022-12-08T05:53:05.731Z,6.20
2022-12-08T05:55:32.254Z,6.10
2022-12-08T05:58:03.071Z,6.15
2022-12-08T06:00:34.854Z,5.70
2022-12-08T06:03:01.521Z,6.70
2022-12-08T06:05:28.089Z,6.45
2022-12-08T06:07:54.812Z,7.00
2022-12-08T06:10:21.316Z,7.25
2022-12-08T06:12:47.802Z,6.22
2022-12-08T06:15:14.235Z,6.18
2022-12-08T06:17:40.700Z,6.15
2022-12-08T06:20:07.885Z,7.50
2022-12-08T06:22:34.659Z,7.32
2022-12-08T06:25:03.203Z,6.60
2022-12-08T06:27:32.873Z,7.68
2022-12-08T06:29:59.599Z,6.53
2022-12-08T06:32:27.749Z,7.50
2022-12-08T06:34:54.308Z,7.38
2022-12-08T06:37:20.730Z,7.30
2022-12-08T06:39:47.212Z,7.13
2022-12-08T06:42:32.564Z,6.68
2022-12-08T06:44:59.943Z,6.93
2022-12-08T06:47:26.591Z,6.30
2022-12-08T06:49:53.280Z,7.65
2022-12-08T06:52:19.694Z,7.70
2022-12-08T06:54:46.125Z,7.20
2022-12-08T06:57:12.593Z,7.00
2022-12-08T06:59:39.739Z,6.65
2022-12-08T07:02:06.344Z,6.85
2022-12-08T07:04:32.819Z,7.05
2022-12-08T07:06:59.242Z,7.22
2022-12-08T07:09:25.665Z,6.53
2022-12-08T07:11:52.075Z,6.43
2022-12-08T07:14:20.315Z,7.35
2022-12-08T07:16:47.248Z,7.28
2022-12-08T07:19:13.790Z,7.05
2022-12-08T07:21:40.293Z,6.20
2022-12-08T07:24:07.132Z,7.25
2022-12-08T07:26:33.572Z,7.80
2022-12-08T07:29:00.403Z,7.38
2022-12-08T07:31:28.574Z,8.40
2022-12-08T07:33:56.707Z,8.30
2022-12-08T07:36:24.204Z,7.15
2022-12-08T07:38:53.339Z,7.22
2022-12-08T07:41:23.597Z,8.30
2022-12-08T07:43:51.055Z,6.55
2022-12-08T07:46:20.624Z,7.60
2022-12-08T07:48:47.431Z,7.70
2022-12-08T07:51:15.491Z,7.25
2022-12-08T07:53:47.211Z,7.28
2022-12-08T07:56:16.812Z,6.95
2022-12-08T07:58:45.827Z,7.33
2022-12-08T08:01:30.553Z,7.13
2022-12-08T08:04:01.349Z,6.82
2022-12-08T08:06:28.532Z,7.47
2022-12-08T08:08:55.149Z,7.28
2022-12-08T08:11:21.978Z,5.87
2022-12-08T08:13:49.978Z,6.18
2022-12-08T08:16:17.265Z,6.90
2022-12-08T08:18:43.824Z,6.35
2022-12-08T08:21:43.272Z,7.03
2022-12-08T08:23:56.708Z,6.30
2022-12-08T08:26:23.214Z,6.85
2022-12-08T08:28:50.087Z,6.32
2022-12-08T08:31:16.647Z,6.20
2022-12-08T08:33:43.154Z,7.15
2022-12-08T08:36:10.009Z,6.77
2022-12-08T08:38:40.039Z,5.82
2022-12-08T08:41:10.870Z,6.80
2022-12-08T08:43:38.585Z,7.03
2022-12-08T08:46:06.625Z,7.18
2022-12-08T08:48:33.326Z,7.37
2022-12-08T08:51:10.900Z,6.10
2022-12-08T08:53:38.110Z,6.35
2022-12-08T08:56:10.239Z,7.05
2022-12-08T08:58:37.085Z,6.78
2022-12-08T09:01:03.833Z,7.00
2022-12-08T09:03:30.349Z,6.55
2022-12-08T09:05:57.072Z,6.40
2022-12-08T09:08:24.119Z,7.50
2022-12-08T09:10:50.892Z,6.97
2022-12-08T09:13:17.461Z,7.33
2022-12-08T09:15:44.060Z,6.90
2022-12-08T09:18:10.566Z,6.78
2022-12-08T09:20:37.114Z,6.68
2022-12-08T09:23:03.594Z,6.85
2022-12-08T09:25:30.055Z,7.30
2022-12-08T09:27:56.771Z,7.40
2022-12-08T09:30:23.375Z,7.68
2022-12-08T09:32:50.102Z,7.22
2022-12-08T09:35:16.642Z,6.72
2022-12-08T09:37:43.172Z,7.30
2022-12-08T09:40:15.431Z,6.72
2022-12-08T09:42:51.487Z,6.50
2022-12-08T09:45:19.403Z,6.88
2022-12-08T09:47:58.998Z,7.60
2022-12-08T09:50:39.587Z,7.73
2022-12-08T09:53:24.045Z,8.40
2022-12-08T09:55:53.756Z,7.18
2022-12-08T09:58:47.490Z,6.18
2022-12-08T10:01:14.475Z,7.22
2022-12-08T10:03:41.980Z,7.40
2022-12-08T10:06:14.088Z,6.72
2022-12-08T10:08:58.787Z,7.20
2022-12-08T10:11:53.273Z,7.32
2022-12-08T10:14:28.914Z,7.50
2022-12-08T10:17:03.860Z,7.27
2022-12-08T10:19:34.204Z,8.27
2022-12-08T10:22:01.886Z,8.25
2022-12-08T10:24:43.482Z,6.88
2022-12-08T10:27:13.161Z,7.57
2022-12-08T10:29:41.055Z,7.90
2022-12-08T10:32:20.600Z,7.80
2022-12-08T10:35:07.501Z,5.97
2022-12-08T10:37:34.931Z,6.57
2022-12-08T10:40:13.398Z,7.47
2022-12-08T10:42:43.556Z,7.40
2022-12-08T10:45:10.179Z,6.95
2022-12-08T10:47:40.712Z,7.18
2022-12-08T10:50:28.012Z,6.45
2022-12-08T10:52:58.250Z,6.90
2022-12-08T10:55:24.888Z,6.83
2022-12-08T10:57:51.385Z,7.00
2022-12-08T11:00:21.179Z,6.57
2022-12-08T11:02:58.492Z,6.82
2022-12-08T11:05:32.164Z,6.57
2022-12-08T11:07:59.217Z,6.90
2022-12-08T11:10:44.331Z,7.32
2022-12-08T11:13:21.834Z,7.03
2022-12-08T11:15:49.343Z,5.55
2022-12-08T11:18:29.000Z,6.82
2022-12-08T11:21:01.825Z,6.10
2022-12-08T11:23:29.819Z,6.68
2022-12-08T11:26:01.353Z,5.75
2022-12-08T11:28:28.595Z,6.20
2022-12-08T11:31:00.253Z,6.40
2022-12-08T11:33:29.263Z,6.57
2022-12-08T11:36:08.991Z,6.60
2022-12-08T11:38:41.591Z,5.55
2022-12-08T11:41:31.352Z,6.53
2022-12-08T11:44:00.837Z,6.80
2022-12-08T11:46:42.558Z,6.97
2022-12-08T11:49:12.318Z,6.55
2022-12-08T11:51:59.068Z,7.32
2022-12-08T11:54:33.732Z,6.40
2022-12-08T11:57:08.428Z,5.97
2022-12-08T11:59:39.558Z,6.57
2022-12-08T12:02:13.640Z,6.78
2022-12-08T12:05:08.635Z,5.82
2022-12-08T12:07:59.625Z,6.57
2022-12-08T12:11:00.869Z,6.78
2022-12-08T12:13:51.867Z,6.83
2022-12-08T12:16:33.783Z,6.60
2022-12-08T12:19:05.584Z,6.68
2022-12-08T12:21:50.180Z,7.03
2022-12-08T12:24:25.899Z,6.80
2022-12-08T12:26:58.693Z,7.00
2022-12-08T12:29:30.770Z,5.72
2022-12-08T12:32:03.545Z,5.38
2022-12-08T12:34:36.456Z,6.65
2022-12-08T12:37:11.212Z,6.72
2022-12-08T12:39:55.175Z,6.93
2022-12-08T12:42:43.010Z,6.50
2022-12-08T12:45:20.002Z,6.45
2022-12-08T12:47:54.118Z,6.63
2022-12-08T12:50:34.872Z,6.22
2022-12-08T12:53:17.294Z,6.77
2022-12-08T12:55:56.449Z,6.95
2022-12-08T12:58:29.092Z,7.03
2022-12-08T13:01:13.837Z,6.80
2022-12-08T13:03:43.943Z,6.57
2022-12-08T13:06:14.864Z,6.80
2022-12-08T13:08:51.834Z,6.63
2022-12-08T13:11:18.517Z,5.15
2022-12-08T13:14:01.208Z,7.13
2022-12-08T13:16:31.477Z,6.97
2022-12-08T13:19:02.395Z,6.10
2022-12-08T13:21:38.168Z,7.05
2022-12-08T13:24:27.985Z,6.20
2022-12-08T13:27:03.432Z,6.45
2022-12-08T13:29:30.835Z,6.38
2022-12-08T13:31:59.256Z,7.13
2022-12-08T13:34:31.707Z,7.32
2022-12-08T13:37:06.790Z,6.82
2022-12-08T13:39:39.143Z,8.15
2022-12-08T13:42:11.661Z,8.07
2022-12-08T13:47:41.443Z,8.73
2022-12-08T13:58:44.261Z,8.70
2022-12-08T14:01:20.583Z,9.25
2022-12-08T14:04:33.773Z,9.73
2022-12-08T14:06:48.762Z,9.70
2022-12-08T14:09:24.521Z,8.65
2022-12-08T14:11:56.546Z,8.43
2022-12-08T14:15:01.725Z,8.45
2022-12-08T14:17:25.439Z,7.65
2022-12-08T14:20:01.442Z,8.05
2022-12-08T14:22:37.104Z,7.75
2022-12-08T14:25:05.278Z,8.10
2022-12-08T14:27:37.553Z,8.30
2022-12-08T14:30:14.506Z,8.70
2022-12-08T14:32:57.176Z,8.45
2022-12-08T14:35:38.205Z,8.93
2022-12-08T14:38:19.350Z,8.27
2022-12-08T14:40:48.982Z,7.10
2022-12-08T14:43:20.785Z,7.38
2022-12-08T14:45:50.681Z,7.50
2022-12-08T14:48:20.945Z,7.22
2022-12-08T14:50:56.173Z,8.30
2022-12-08T14:53:23.752Z,7.60
2022-12-08T14:55:51.365Z,9.32
2022-12-08T14:58:27.685Z,9.60
2022-12-08T15:00:58.370Z,10.20
2022-12-08T15:03:30.520Z,9.27
2022-12-08T15:06:03.037Z,9.23
2022-12-08T15:08:31.066Z,7.35
2022-12-08T15:11:31.983Z,8.60
2022-12-08T15:13:58.529Z,8.57
2022-12-08T15:16:43.692Z,8.87
2022-12-08T15:19:28.521Z,8.70
2022-12-08T15:22:21.613Z,7.50
2022-12-08T15:24:48.074Z,8.32
2022-12-08T15:27:21.000Z,8.95
2022-12-08T15:29:48.403Z,8.00
2022-12-08T15:32:21.242Z,7.88
2022-12-08T15:34:47.924Z,9.25
2022-12-08T15:37:23.111Z,8.88
2022-12-08T15:39:50.521Z,9.63
2022-12-08T15:42:17.493Z,8.67
2022-12-08T15:44:43.979Z,10.27
2022-12-08T15:47:30.082Z,9.77
2022-12-08T15:49:56.628Z,9.48
2022-12-08T15:52:24.716Z,10.27
2022-12-08T15:54:51.276Z,10.17
2022-12-08T15:58:24.878Z,9.35
2022-12-08T16:00:50.432Z,10.38
2022-12-08T16:03:49.438Z,11.00
2022-12-08T16:06:57.341Z,10.77
2022-12-08T16:09:11.107Z,11.63
2022-12-08T16:12:06.521Z,13.23
2022-12-08T16:15:39.686Z,12.48
2022-12-08T16:17:21.146Z,12.23
2022-12-08T16:19:47.600Z,13.73
2022-12-08T16:25:22.045Z,13.20
2022-12-08T16:28:03.185Z,12.70
2022-12-08T16:30:32.549Z,13.82
2022-12-08T16:32:59.018Z,15.30
2022-12-08T16:35:25.438Z,16.67
2022-12-08T16:37:51.880Z,16.00
2022-12-08T16:40:18.566Z,15.93
2022-12-08T16:42:46.458Z,15.30
2022-12-08T16:45:20.277Z,15.13
2022-12-08T16:47:49.700Z,14.57
2022-12-08T16:50:25.181Z,14.02
2022-12-08T16:52:58.113Z,11.40
2022-12-08T16:55:24.673Z,12.98
2022-12-08T16:57:51.179Z,11.95
2022-12-08T17:00:24.261Z,14.07
2022-12-08T17:02:51.641Z,12.07
2022-12-08T17:05:19.955Z,13.55
2022-12-08T17:07:48.311Z,12.13
2022-12-08T17:10:18.509Z,13.80
2022-12-08T17:12:45.731Z,12.97
2022-12-08T17:15:19.449Z,12.23
2022-12-08T17:17:45.990Z,12.32
2022-12-08T17:20:15.536Z,12.27
2022-12-08T17:22:42.073Z,12.30
2022-12-08T17:25:08.972Z,11.87
2022-12-08T17:27:36.176Z,10.82
2022-12-08T17:30:02.993Z,11.73
2022-12-08T17:32:29.656Z,11.38
2022-12-08T17:34:56.214Z,11.68
2022-12-08T17:37:22.725Z,11.50
2022-12-08T17:39:49.168Z,13.15
2022-12-08T17:42:15.941Z,12.73
2022-12-08T17:44:42.567Z,12.07
2022-12-08T17:47:09.113Z,12.32
2022-12-08T17:49:35.736Z,11.67
2022-12-08T17:52:04.607Z,11.60
2022-12-08T17:54:31.422Z,12.23
2022-12-08T17:56:58.611Z,12.00
2022-12-08T17:59:26.936Z,12.98
2022-12-08T18:01:54.676Z,11.87
2022-12-08T18:04:21.365Z,12.75
2022-12-08T18:06:48.153Z,12.90
2022-12-08T18:09:15.063Z,13.63
2022-12-08T18:11:42.873Z,13.52
2022-12-08T18:14:11.170Z,14.20
2022-12-08T18:16:39.831Z,13.40
2022-12-08T18:19:07.624Z,12.70
2022-12-08T18:21:34.923Z,13.93
2022-12-08T18:24:01.720Z,14.18
2022-12-08T18:26:29.143Z,13.53
2022-12-08T18:28:55.579Z,14.68
2022-12-08T18:31:23.128Z,13.55
2022-12-08T18:33:50.840Z,14.73
2022-12-08T18:36:21.468Z,14.43
2022-12-08T18:38:48.307Z,14.97
2022-12-08T18:41:17.656Z,15.40
2022-12-08T18:43:44.466Z,15.93
2022-12-08T18:46:13.544Z,16.55
2022-12-08T18:48:43.039Z,15.98
2022-12-08T18:51:14.791Z,15.93
2022-12-08T18:53:41.736Z,15.60
2022-12-08T18:56:09.168Z,14.48
2022-12-08T18:58:35.834Z,14.90
2022-12-08T19:01:02.386Z,15.23
2022-12-08T19:03:29.461Z,15.40
2022-12-08T19:06:06.364Z,14.90
2022-12-08T19:08:33.516Z,15.82
2022-12-08T19:11:01.079Z,15.23
2022-12-08T19:13:27.626Z,15.30
2022-12-08T19:15:54.651Z,20.87
2022-12-08T19:18:21.218Z,16.75
2022-12-08T19:20:47.732Z,17.42
2022-12-08T19:23:14.694Z,17.35
2022-12-08T19:25:41.527Z,23.80
2022-12-08T19:28:08.017Z,29.10
2022-12-08T19:30:34.485Z,27.27
2022-12-08T19:33:00.931Z,27.02
2022-12-08T19:35:27.463Z,24.25
2022-12-08T19:37:55.014Z,23.48
2022-12-08T19:40:40.418Z,22.67
2022-12-08T19:43:34.535Z,25.30
2022-12-08T19:46:01.214Z,23.98
2022-12-08T19:48:28.220Z,33.17
2022-12-08T19:50:54.702Z,26.33
2022-12-08T19:53:21.401Z,25.63
2022-12-08T19:55:47.970Z,23.20
2022-12-08T19:58:14.671Z,22.35
2022-12-08T20:00:42.520Z,23.08
2022-12-08T20:03:09.121Z,23.17
2022-12-08T20:05:36.774Z,21.17
2022-12-08T20:08:03.375Z,20.50
2022-12-08T20:10:33.789Z,20.55
2022-12-08T20:13:19.832Z,20.05
2022-12-08T20:15:46.675Z,19.27
2022-12-08T20:18:14.836Z,19.90
2022-12-08T20:20:43.278Z,20.88
2022-12-08T20:23:09.940Z,29.13
2022-12-08T20:25:41.141Z,40.63
2022-12-08T20:28:07.863Z,25.15
2022-12-08T20:30:34.933Z,23.30
2022-12-08T20:33:01.387Z,22.55
2022-12-08T20:35:27.806Z,18.20
2022-12-08T20:37:54.382Z,19.40
2022-12-08T20:40:20.972Z,18.65
2022-12-08T20:42:47.483Z,18.23
2022-12-08T20:45:13.960Z,19.38
2022-12-08T20:47:40.415Z,20.27
2022-12-08T20:50:08.044Z,20.02
2022-12-08T20:52:34.895Z,23.30
2022-12-08T20:55:01.510Z,20.67
2022-12-08T20:57:28.082Z,23.60
2022-12-08T20:59:54.529Z,19.60
2022-12-08T21:02:21.155Z,19.10
2022-12-08T21:04:47.819Z,19.50
2022-12-08T21:07:14.438Z,18.90
2022-12-08T21:09:41.198Z,20.05
2022-12-08T21:12:07.920Z,20.15
2022-12-08T21:14:34.604Z,19.63
2022-12-08T21:17:01.174Z,20.50
2022-12-08T21:19:27.817Z,20.13
2022-12-08T21:21:54.448Z,21.25
2022-12-08T21:24:21.038Z,21.75
2022-12-08T21:26:47.748Z,19.90
2022-12-08T21:29:14.339Z,20.52
2022-12-08T21:31:41.025Z,21.40
2022-12-08T21:34:07.700Z,23.98
2022-12-08T21:36:34.438Z,21.52
2022-12-08T21:39:02.685Z,20.98
2022-12-08T21:41:48.666Z,24.95
2022-12-08T21:44:18.697Z,25.17
2022-12-08T21:46:45.483Z,23.40
2022-12-08T21:49:12.002Z,23.88
2022-12-08T21:51:42.211Z,24.15
2022-12-08T21:54:18.367Z,23.63
2022-12-08T21:56:47.275Z,23.93
2022-12-08T21:59:13.879Z,23.35
2022-12-08T22:01:40.507Z,24.85
2022-12-08T22:04:07.436Z,26.27
2022-12-08T22:06:34.254Z,37.63
2022-12-08T22:09:00.778Z,27.67
2022-12-08T22:11:28.625Z,27.00
2022-12-08T22:13:55.154Z,23.70
2022-12-08T22:16:21.925Z,27.08
2022-12-08T22:18:48.525Z,24.90
2022-12-08T22:21:18.003Z,23.97
2022-12-08T22:23:44.824Z,30.45
2022-12-08T22:26:11.817Z,26.95
2022-12-08T22:28:40.792Z,24.10
2022-12-08T22:31:16.105Z,37.95
2022-12-08T22:33:43.435Z,27.53
2022-12-08T22:36:25.413Z,25.67
2022-12-08T22:38:53.560Z,26.60
2022-12-08T22:41:21.266Z,27.40
2022-12-08T22:43:48.753Z,25.42
2022-12-08T22:46:18.539Z,24.07
2022-12-08T22:48:45.376Z,25.10
2022-12-08T22:51:12.263Z,23.83
2022-12-08T22:53:39.313Z,24.45
2022-12-08T22:56:11.370Z,23.55
2022-12-08T22:58:39.471Z,22.83
2022-12-08T23:01:07.566Z,23.40
2022-12-08T23:03:34.682Z,23.20
2022-12-08T23:06:01.694Z,25.20
2022-12-08T23:08:28.347Z,28.80
2022-12-08T23:10:55.187Z,25.13
2022-12-08T23:13:22.084Z,24.05
2022-12-08T23:15:50.018Z,23.33
2022-12-08T23:18:19.233Z,25.55
2022-12-08T23:20:46.963Z,23.27
2022-12-08T23:23:13.910Z,21.17
2022-12-08T23:25:41.394Z,22.02
2022-12-08T23:28:08.435Z,22.58
2022-12-08T23:30:35.409Z,22.67
2022-12-08T23:33:02.259Z,21.50
2022-12-08T23:35:28.821Z,22.67
2022-12-08T23:37:55.270Z,22.73
2022-12-08T23:40:22.063Z,22.83
2022-12-08T23:42:48.555Z,25.73
2022-12-08T23:45:15.393Z,22.95
2022-12-08T23:47:41.861Z,23.73
2022-12-08T23:50:08.936Z,32.00
2022-12-08T23:52:35.741Z,26.42
2022-12-08T23:55:02.669Z,23.83
2022-12-08T23:57:29.226Z,23.92
2022-12-08T23:59:55.665Z,23.73
